sensor_id;sensor_type;location;lat;lon;timestamp;P1;durP1;ratioP1;P2;durP2;ratioP2
4833;SDS011;12895;51.064;7.028;2024-03-08T00:02:07;24.40;;;20.43;;
4833;SDS011;12895;51.064;7.028;2024-03-08T00:04:56;24.40;;;19.70;;
4833;SDS011;12895;51.064;7.028;2024-03-08T00:07:43;24.23;;;21.00;;
4833;SDS011;12895;51.064;7.028;2024-03-08T00:10:31;23.93;;;20.47;;
4833;SDS011;12895;51.064;7.028;2024-03-08T00:13:18;23.40;;;20.23;;
4833;SDS011;12895;51.064;7.028;2024-03-08T00:16:05;22.90;;;19.60;;
4833;SDS011;12895;51.064;7.028;2024-03-08T00:18:54;23.63;;;20.10;;
4833;SDS011;12895;51.064;7.028;2024-03-08T00:21:43;22.20;;;19.83;;
4833;SDS011;12895;51.064;7.028;2024-03-08T00:24:30;23.47;;;20.07;;
4833;SDS011;12895;51.064;7.028;2024-03-08T00:27:17;21.97;;;19.07;;
4833;SDS011;12895;51.064;7.028;2024-03-08T00:30:06;27.80;;;18.97;;
4833;SDS011;12895;51.064;7.028;2024-03-08T00:32:54;22.60;;;19.43;;
4833;SDS011;12895;51.064;7.028;2024-03-08T00:35:41;22.70;;;19.00;;
4833;SDS011;12895;51.064;7.028;2024-03-08T00:38:30;24.10;;;19.47;;
4833;SDS011;12895;51.064;7.028;2024-03-08T00:41:17;22.77;;;18.87;;
4833;SDS011;12895;51.064;7.028;2024-03-08T00:44:04;22.33;;;19.90;;
4833;SDS011;12895;51.064;7.028;2024-03-08T00:46:51;25.50;;;19.20;;
4833;SDS011;12895;51.064;7.028;2024-03-08T00:49:38;24.33;;;19.23;;
4833;SDS011;12895;51.064;7.028;2024-03-08T00:52:27;24.40;;;19.47;;
4833;SDS011;12895;51.064;7.028;2024-03-08T00:55:16;24.20;;;20.10;;
4833;SDS011;12895;51.064;7.028;2024-03-08T00:58:03;22.53;;;19.23;;
4833;SDS011;12895;51.064;7.028;2024-03-08T01:00:50;24.93;;;21.03;;
4833;SDS011;12895;51.064;7.028;2024-03-08T01:03:37;23.83;;;19.40;;
4833;SDS011;12895;51.064;7.028;2024-03-08T01:06:24;25.20;;;19.97;;
4833;SDS011;12895;51.064;7.028;2024-03-08T01:09:12;23.93;;;19.30;;
4833;SDS011;12895;51.064;7.028;2024-03-08T01:12:01;21.90;;;18.60;;
4833;SDS011;12895;51.064;7.028;2024-03-08T01:14:48;22.93;;;18.77;;
4833;SDS011;12895;51.064;7.028;2024-03-08T01:17:35;22.03;;;19.00;;
4833;SDS011;12895;51.064;7.028;2024-03-08T01:20:22;25.90;;;19.30;;
4833;SDS011;12895;51.064;7.028;2024-03-08T01:23:09;23.13;;;19.20;;
4833;SDS011;12895;51.064;7.028;2024-03-08T01:25:56;26.80;;;20.30;;
4833;SDS011;12895;51.064;7.028;2024-03-08T01:28:45;21.13;;;18.70;;
4833;SDS011;12895;51.064;7.028;2024-03-08T01:31:32;26.70;;;20.40;;
4833;SDS011;12895;51.064;7.028;2024-03-08T01:34:22;26.77;;;20.67;;
4833;SDS011;12895;51.064;7.028;2024-03-08T01:37:09;26.17;;;20.63;;
4833;SDS011;12895;51.064;7.028;2024-03-08T01:39:56;27.10;;;19.23;;
4833;SDS011;12895;51.064;7.028;2024-03-08T01:42:43;25.93;;;20.77;;
4833;SDS011;12895;51.064;7.028;2024-03-08T01:45:31;24.07;;;20.63;;
4833;SDS011;12895;51.064;7.028;2024-03-08T01:48:20;26.70;;;21.77;;
4833;SDS011;12895;51.064;7.028;2024-03-08T01:51:09;26.57;;;20.37;;
4833;SDS011;12895;51.064;7.028;2024-03-08T01:53:57;27.90;;;21.13;;
4833;SDS011;12895;51.064;7.028;2024-03-08T01:56:48;25.77;;;20.07;;
4833;SDS011;12895;51.064;7.028;2024-03-08T01:59:35;26.30;;;21.67;;
4833;SDS011;12895;51.064;7.028;2024-03-08T02:02:23;28.07;;;21.17;;
4833;SDS011;12895;51.064;7.028;2024-03-08T02:08:45;29.03;;;21.90;;
4833;SDS011;12895;51.064;7.028;2024-03-08T02:11:33;23.20;;;19.47;;
4833;SDS011;12895;51.064;7.028;2024-03-08T02:14:21;23.80;;;19.13;;
4833;SDS011;12895;51.064;7.028;2024-03-08T02:17:09;27.60;;;20.60;;
4833;SDS011;12895;51.064;7.028;2024-03-08T02:19:58;23.80;;;20.77;;
4833;SDS011;12895;51.064;7.028;2024-03-08T02:22:48;26.87;;;21.27;;
4833;SDS011;12895;51.064;7.028;2024-03-08T02:25:36;28.10;;;21.20;;
4833;SDS011;12895;51.064;7.028;2024-03-08T02:28:23;25.97;;;21.63;;
4833;SDS011;12895;51.064;7.028;2024-03-08T02:31:11;25.80;;;19.70;;
4833;SDS011;12895;51.064;7.028;2024-03-08T02:33:59;24.50;;;20.30;;
4833;SDS011;12895;51.064;7.028;2024-03-08T02:36:46;26.20;;;20.63;;
4833;SDS011;12895;51.064;7.028;2024-03-08T02:39:34;25.83;;;20.70;;
4833;SDS011;12895;51.064;7.028;2024-03-08T02:42:21;23.17;;;19.63;;
4833;SDS011;12895;51.064;7.028;2024-03-08T02:45:09;24.30;;;19.67;;
4833;SDS011;12895;51.064;7.028;2024-03-08T02:47:56;24.27;;;20.63;;
4833;SDS011;12895;51.064;7.028;2024-03-08T02:50:43;24.13;;;18.93;;
4833;SDS011;12895;51.064;7.028;2024-03-08T02:53:31;27.10;;;20.30;;
4833;SDS011;12895;51.064;7.028;2024-03-08T02:56:19;28.97;;;19.97;;
4833;SDS011;12895;51.064;7.028;2024-03-08T02:59:07;23.70;;;19.80;;
4833;SDS011;12895;51.064;7.028;2024-03-08T03:01:54;24.87;;;20.37;;
4833;SDS011;12895;51.064;7.028;2024-03-08T03:04:41;23.63;;;19.40;;
4833;SDS011;12895;51.064;7.028;2024-03-08T03:07:28;26.23;;;20.20;;
4833;SDS011;12895;51.064;7.028;2024-03-08T03:10:16;25.90;;;20.17;;
4833;SDS011;12895;51.064;7.028;2024-03-08T03:13:05;27.10;;;18.80;;
4833;SDS011;12895;51.064;7.028;2024-03-08T03:15:52;24.70;;;20.10;;
4833;SDS011;12895;51.064;7.028;2024-03-08T03:18:39;28.53;;;20.30;;
4833;SDS011;12895;51.064;7.028;2024-03-08T03:21:27;23.27;;;19.00;;
4833;SDS011;12895;51.064;7.028;2024-03-08T03:24:17;26.10;;;20.27;;
4833;SDS011;12895;51.064;7.028;2024-03-08T03:27:04;27.87;;;20.47;;
4833;SDS011;12895;51.064;7.028;2024-03-08T03:29:57;27.10;;;20.07;;
4833;SDS011;12895;51.064;7.028;2024-03-08T03:32:44;24.30;;;19.70;;
4833;SDS011;12895;51.064;7.028;2024-03-08T03:35:32;27.47;;;20.63;;
4833;SDS011;12895;51.064;7.028;2024-03-08T03:38:19;26.50;;;19.73;;
4833;SDS011;12895;51.064;7.028;2024-03-08T03:41:09;25.47;;;20.20;;
4833;SDS011;12895;51.064;7.028;2024-03-08T03:43:56;24.50;;;19.50;;
4833;SDS011;12895;51.064;7.028;2024-03-08T03:46:45;26.20;;;19.53;;
4833;SDS011;12895;51.064;7.028;2024-03-08T03:49:32;25.50;;;20.30;;
4833;SDS011;12895;51.064;7.028;2024-03-08T03:52:19;25.87;;;20.03;;
4833;SDS011;12895;51.064;7.028;2024-03-08T03:55:07;25.33;;;20.20;;
4833;SDS011;12895;51.064;7.028;2024-03-08T03:57:57;26.07;;;19.60;;
4833;SDS011;12895;51.064;7.028;2024-03-08T04:00:46;25.00;;;19.63;;
4833;SDS011;12895;51.064;7.028;2024-03-08T04:03:34;25.83;;;19.37;;
4833;SDS011;12895;51.064;7.028;2024-03-08T04:06:22;27.53;;;19.70;;
4833;SDS011;12895;51.064;7.028;2024-03-08T04:09:09;25.40;;;20.10;;
4833;SDS011;12895;51.064;7.028;2024-03-08T04:11:56;22.57;;;18.93;;
4833;SDS011;12895;51.064;7.028;2024-03-08T04:14:44;28.53;;;19.70;;
4833;SDS011;12895;51.064;7.028;2024-03-08T04:17:31;28.03;;;20.30;;
4833;SDS011;12895;51.064;7.028;2024-03-08T04:20:19;28.33;;;19.70;;
4833;SDS011;12895;51.064;7.028;2024-03-08T04:23:06;27.50;;;20.70;;
4833;SDS011;12895;51.064;7.028;2024-03-08T04:25:54;26.50;;;20.03;;
4833;SDS011;12895;51.064;7.028;2024-03-08T04:28:41;25.20;;;19.90;;
4833;SDS011;12895;51.064;7.028;2024-03-08T04:31:28;27.70;;;20.17;;
4833;SDS011;12895;51.064;7.028;2024-03-08T04:34:16;27.00;;;20.17;;
4833;SDS011;12895;51.064;7.028;2024-03-08T04:37:04;25.90;;;20.60;;
4833;SDS011;12895;51.064;7.028;2024-03-08T04:39:52;25.47;;;20.40;;
4833;SDS011;12895;51.064;7.028;2024-03-08T04:42:39;24.83;;;19.47;;
4833;SDS011;12895;51.064;7.028;2024-03-08T04:45:28;28.40;;;19.97;;
4833;SDS011;12895;51.064;7.028;2024-03-08T04:48:15;26.10;;;19.60;;
4833;SDS011;12895;51.064;7.028;2024-03-08T04:51:03;25.47;;;19.90;;
4833;SDS011;12895;51.064;7.028;2024-03-08T04:53:52;25.37;;;19.90;;
4833;SDS011;12895;51.064;7.028;2024-03-08T04:56:39;27.97;;;21.73;;
4833;SDS011;12895;51.064;7.028;2024-03-08T04:59:26;28.37;;;20.60;;
4833;SDS011;12895;51.064;7.028;2024-03-08T05:02:13;26.00;;;19.20;;
4833;SDS011;12895;51.064;7.028;2024-03-08T05:05:00;28.23;;;20.30;;
4833;SDS011;12895;51.064;7.028;2024-03-08T05:07:48;31.20;;;21.17;;
4833;SDS011;12895;51.064;7.028;2024-03-08T05:10:36;25.23;;;20.13;;
4833;SDS011;12895;51.064;7.028;2024-03-08T05:13:23;23.60;;;19.03;;
4833;SDS011;12895;51.064;7.028;2024-03-08T05:16:12;26.83;;;21.57;;
4833;SDS011;12895;51.064;7.028;2024-03-08T05:19:01;26.30;;;21.63;;
4833;SDS011;12895;51.064;7.028;2024-03-08T05:21:48;28.27;;;21.33;;
4833;SDS011;12895;51.064;7.028;2024-03-08T05:24:36;28.63;;;21.70;;
4833;SDS011;12895;51.064;7.028;2024-03-08T05:27:24;29.83;;;21.43;;
4833;SDS011;12895;51.064;7.028;2024-03-08T05:30:12;26.60;;;20.23;;
4833;SDS011;12895;51.064;7.028;2024-03-08T05:33:00;28.73;;;20.80;;
4833;SDS011;12895;51.064;7.028;2024-03-08T05:35:47;31.90;;;21.57;;
4833;SDS011;12895;51.064;7.028;2024-03-08T05:38:34;29.30;;;21.83;;
4833;SDS011;12895;51.064;7.028;2024-03-08T05:41:22;28.63;;;21.53;;
4833;SDS011;12895;51.064;7.028;2024-03-08T05:44:21;29.47;;;21.13;;
4833;SDS011;12895;51.064;7.028;2024-03-08T05:47:11;29.33;;;20.57;;
4833;SDS011;12895;51.064;7.028;2024-03-08T05:50:12;31.37;;;20.97;;
4833;SDS011;12895;51.064;7.028;2024-03-08T05:53:27;26.83;;;20.37;;
4833;SDS011;12895;51.064;7.028;2024-03-08T05:56:27;28.83;;;21.27;;
4833;SDS011;12895;51.064;7.028;2024-03-08T05:59:57;30.40;;;21.30;;
4833;SDS011;12895;51.064;7.028;2024-03-08T06:06:25;26.67;;;21.27;;
4833;SDS011;12895;51.064;7.028;2024-03-08T06:09:36;30.23;;;21.40;;
4833;SDS011;12895;51.064;7.028;2024-03-08T06:12:41;29.17;;;21.70;;
4833;SDS011;12895;51.064;7.028;2024-03-08T06:15:47;28.67;;;21.10;;
4833;SDS011;12895;51.064;7.028;2024-03-08T06:19:04;28.10;;;21.00;;
4833;SDS011;12895;51.064;7.028;2024-03-08T06:22:09;28.57;;;21.77;;
4833;SDS011;12895;51.064;7.028;2024-03-08T06:25:12;27.83;;;21.50;;
4833;SDS011;12895;51.064;7.028;2024-03-08T06:28:14;34.80;;;21.93;;
4833;SDS011;12895;51.064;7.028;2024-03-08T06:31:20;38.20;;;21.90;;
4833;SDS011;12895;51.064;7.028;2024-03-08T06:34:30;28.73;;;22.27;;
4833;SDS011;12895;51.064;7.028;2024-03-08T06:38:01;28.60;;;21.17;;
4833;SDS011;12895;51.064;7.028;2024-03-08T06:41:11;30.50;;;22.40;;
4833;SDS011;12895;51.064;7.028;2024-03-08T06:44:44;26.87;;;20.30;;
4833;SDS011;12895;51.064;7.028;2024-03-08T06:47:58;28.20;;;21.60;;
4833;SDS011;12895;51.064;7.028;2024-03-08T06:51:30;30.97;;;23.07;;
4833;SDS011;12895;51.064;7.028;2024-03-08T06:54:55;32.20;;;22.20;;
4833;SDS011;12895;51.064;7.028;2024-03-08T06:58:08;27.90;;;21.57;;
4833;SDS011;12895;51.064;7.028;2024-03-08T07:01:07;27.20;;;21.30;;
4833;SDS011;12895;51.064;7.028;2024-03-08T07:07:30;28.90;;;22.50;;
4833;SDS011;12895;51.064;7.028;2024-03-08T07:10:23;28.80;;;21.83;;
4833;SDS011;12895;51.064;7.028;2024-03-08T07:13:31;26.83;;;21.20;;
4833;SDS011;12895;51.064;7.028;2024-03-08T07:16:54;29.60;;;22.40;;
4833;SDS011;12895;51.064;7.028;2024-03-08T07:19:47;28.00;;;21.00;;
4833;SDS011;12895;51.064;7.028;2024-03-08T07:22:56;26.00;;;20.20;;
4833;SDS011;12895;51.064;7.028;2024-03-08T07:25:57;27.90;;;21.37;;
4833;SDS011;12895;51.064;7.028;2024-03-08T07:29:03;26.90;;;20.53;;
4833;SDS011;12895;51.064;7.028;2024-03-08T07:32:24;27.50;;;21.13;;
4833;SDS011;12895;51.064;7.028;2024-03-08T07:35:24;27.90;;;20.30;;
4833;SDS011;12895;51.064;7.028;2024-03-08T07:38:29;26.97;;;19.90;;
4833;SDS011;12895;51.064;7.028;2024-03-08T07:41:33;25.27;;;20.83;;
4833;SDS011;12895;51.064;7.028;2024-03-08T07:44:34;25.40;;;20.03;;
4833;SDS011;12895;51.064;7.028;2024-03-08T07:47:29;25.20;;;20.13;;
4833;SDS011;12895;51.064;7.028;2024-03-08T07:50:42;23.10;;;19.30;;
4833;SDS011;12895;51.064;7.028;2024-03-08T07:53:41;24.43;;;19.17;;
4833;SDS011;12895;51.064;7.028;2024-03-08T07:56:42;26.20;;;20.00;;
4833;SDS011;12895;51.064;7.028;2024-03-08T07:59:52;27.23;;;20.83;;
4833;SDS011;12895;51.064;7.028;2024-03-08T08:02:56;25.40;;;19.60;;
4833;SDS011;12895;51.064;7.028;2024-03-08T08:10:19;24.60;;;19.77;;
4833;SDS011;12895;51.064;7.028;2024-03-08T08:13:32;24.93;;;19.53;;
4833;SDS011;12895;51.064;7.028;2024-03-08T08:17:02;24.30;;;19.53;;
4833;SDS011;12895;51.064;7.028;2024-03-08T08:20:16;22.10;;;18.13;;
4833;SDS011;12895;51.064;7.028;2024-03-08T08:23:45;25.60;;;20.10;;
4833;SDS011;12895;51.064;7.028;2024-03-08T08:27:03;25.87;;;18.80;;
4833;SDS011;12895;51.064;7.028;2024-03-08T08:30:27;24.90;;;19.67;;
4833;SDS011;12895;51.064;7.028;2024-03-08T08:33:54;24.43;;;20.50;;
4833;SDS011;12895;51.064;7.028;2024-03-08T08:37:06;24.03;;;19.27;;
4833;SDS011;12895;51.064;7.028;2024-03-08T09:15:33;24.47;;;20.17;;
4833;SDS011;12895;51.064;7.028;2024-03-08T09:18:44;25.23;;;19.27;;
4833;SDS011;12895;51.064;7.028;2024-03-08T09:21:48;22.57;;;18.90;;
4833;SDS011;12895;51.064;7.028;2024-03-08T09:25:06;23.33;;;17.93;;
4833;SDS011;12895;51.064;7.028;2024-03-08T09:28:15;20.40;;;18.20;;
4833;SDS011;12895;51.064;7.028;2024-03-08T09:31:41;22.83;;;17.77;;
4833;SDS011;12895;51.064;7.028;2024-03-08T09:35:04;20.27;;;17.93;;
4833;SDS011;12895;51.064;7.028;2024-03-08T09:38:08;19.13;;;16.70;;
4833;SDS011;12895;51.064;7.028;2024-03-08T09:41:19;23.40;;;17.90;;
4833;SDS011;12895;51.064;7.028;2024-03-08T09:44:17;17.80;;;15.90;;
4833;SDS011;12895;51.064;7.028;2024-03-08T09:47:06;19.87;;;17.00;;
4833;SDS011;12895;51.064;7.028;2024-03-08T09:49:54;17.97;;;16.07;;
4833;SDS011;12895;51.064;7.028;2024-03-08T09:52:41;21.13;;;16.50;;
4833;SDS011;12895;51.064;7.028;2024-03-08T09:55:29;17.23;;;15.20;;
4833;SDS011;12895;51.064;7.028;2024-03-08T09:58:19;17.43;;;15.57;;
4833;SDS011;12895;51.064;7.028;2024-03-08T10:01:28;17.30;;;15.40;;
4833;SDS011;12895;51.064;7.028;2024-03-08T10:04:16;20.60;;;16.50;;
4833;SDS011;12895;51.064;7.028;2024-03-08T10:07:04;21.37;;;16.03;;
4833;SDS011;12895;51.064;7.028;2024-03-08T10:09:52;18.47;;;14.80;;
4833;SDS011;12895;51.064;7.028;2024-03-08T10:12:42;19.20;;;16.13;;
4833;SDS011;12895;51.064;7.028;2024-03-08T10:15:29;17.43;;;14.40;;
4833;SDS011;12895;51.064;7.028;2024-03-08T10:18:18;19.63;;;15.30;;
4833;SDS011;12895;51.064;7.028;2024-03-08T10:21:07;15.60;;;13.97;;
4833;SDS011;12895;51.064;7.028;2024-03-08T10:23:55;17.00;;;14.70;;
4833;SDS011;12895;51.064;7.028;2024-03-08T10:26:43;18.50;;;14.97;;
4833;SDS011;12895;51.064;7.028;2024-03-08T10:29:31;15.53;;;13.93;;
4833;SDS011;12895;51.064;7.028;2024-03-08T10:32:18;16.13;;;14.30;;
4833;SDS011;12895;51.064;7.028;2024-03-08T10:35:06;14.73;;;13.20;;
4833;SDS011;12895;51.064;7.028;2024-03-08T10:37:55;16.00;;;14.30;;
4833;SDS011;12895;51.064;7.028;2024-03-08T10:40:45;16.93;;;15.13;;
4833;SDS011;12895;51.064;7.028;2024-03-08T10:43:40;15.90;;;14.17;;
4833;SDS011;12895;51.064;7.028;2024-03-08T10:46:59;16.53;;;13.53;;
4833;SDS011;12895;51.064;7.028;2024-03-08T10:49:51;16.57;;;13.53;;
4833;SDS011;12895;51.064;7.028;2024-03-08T10:52:41;14.83;;;13.20;;
4833;SDS011;12895;51.064;7.028;2024-03-08T10:55:29;15.67;;;14.00;;
4833;SDS011;12895;51.064;7.028;2024-03-08T10:58:18;15.17;;;13.43;;
4833;SDS011;12895;51.064;7.028;2024-03-08T11:01:07;14.87;;;13.27;;
4833;SDS011;12895;51.064;7.028;2024-03-08T11:03:55;13.63;;;12.10;;
4833;SDS011;12895;51.064;7.028;2024-03-08T11:06:43;15.63;;;13.93;;
4833;SDS011;12895;51.064;7.028;2024-03-08T11:09:33;14.63;;;13.07;;
4833;SDS011;12895;51.064;7.028;2024-03-08T11:12:25;16.47;;;13.90;;
4833;SDS011;12895;51.064;7.028;2024-03-08T11:15:14;14.37;;;12.87;;
4833;SDS011;12895;51.064;7.028;2024-03-08T11:18:04;15.63;;;13.43;;
4833;SDS011;12895;51.064;7.028;2024-03-08T11:20:56;14.60;;;13.10;;
4833;SDS011;12895;51.064;7.028;2024-03-08T11:23:43;15.53;;;13.60;;
4833;SDS011;12895;51.064;7.028;2024-03-08T11:26:30;14.20;;;12.63;;
4833;SDS011;12895;51.064;7.028;2024-03-08T11:29:36;16.20;;;14.10;;
4833;SDS011;12895;51.064;7.028;2024-03-08T11:32:27;13.83;;;12.10;;
4833;SDS011;12895;51.064;7.028;2024-03-08T11:35:17;16.37;;;13.30;;
4833;SDS011;12895;51.064;7.028;2024-03-08T11:38:07;13.10;;;11.80;;
4833;SDS011;12895;51.064;7.028;2024-03-08T11:40:57;14.27;;;12.97;;
4833;SDS011;12895;51.064;7.028;2024-03-08T11:44:24;13.30;;;11.80;;
4833;SDS011;12895;51.064;7.028;2024-03-08T11:47:20;14.10;;;12.70;;
4833;SDS011;12895;51.064;7.028;2024-03-08T11:50:23;14.23;;;12.80;;
4833;SDS011;12895;51.064;7.028;2024-03-08T11:54:04;15.03;;;13.30;;
4833;SDS011;12895;51.064;7.028;2024-03-08T11:56:56;13.87;;;12.20;;
4833;SDS011;12895;51.064;7.028;2024-03-08T12:00:16;14.50;;;12.70;;
4833;SDS011;12895;51.064;7.028;2024-03-08T12:03:27;13.40;;;12.10;;
4833;SDS011;12895;51.064;7.028;2024-03-08T12:07:00;13.40;;;12.10;;
4833;SDS011;12895;51.064;7.028;2024-03-08T12:13:24;13.17;;;11.77;;
4833;SDS011;12895;51.064;7.028;2024-03-08T12:16:17;13.63;;;12.23;;
4833;SDS011;12895;51.064;7.028;2024-03-08T12:19:11;13.20;;;11.90;;
4833;SDS011;12895;51.064;7.028;2024-03-08T12:22:06;13.13;;;11.83;;
4833;SDS011;12895;51.064;7.028;2024-03-08T12:25:20;13.20;;;11.90;;
4833;SDS011;12895;51.064;7.028;2024-03-08T12:28:07;12.80;;;11.60;;
4833;SDS011;12895;51.064;7.028;2024-03-08T12:40:11;13.23;;;12.03;;
4833;SDS011;12895;51.064;7.028;2024-03-08T12:41:11;13.17;;;11.83;;
4833;SDS011;12895;51.064;7.028;2024-03-08T12:48:15;12.70;;;11.47;;
4833;SDS011;12895;51.064;7.028;2024-03-08T12:51:20;12.23;;;11.00;;
4833;SDS011;12895;51.064;7.028;2024-03-08T12:55:04;12.53;;;11.23;;
4833;SDS011;12895;51.064;7.028;2024-03-08T12:58:46;13.70;;;12.40;;
4833;SDS011;12895;51.064;7.028;2024-03-08T13:02:08;12.83;;;11.53;;
4833;SDS011;12895;51.064;7.028;2024-03-08T13:05:19;13.00;;;11.70;;
4833;SDS011;12895;51.064;7.028;2024-03-08T13:08:22;13.30;;;11.90;;
4833;SDS011;12895;51.064;7.028;2024-03-08T13:11:28;14.30;;;12.13;;
4833;SDS011;12895;51.064;7.028;2024-03-08T13:14:47;13.03;;;11.67;;
4833;SDS011;12895;51.064;7.028;2024-03-08T13:18:05;12.30;;;11.07;;
4833;SDS011;12895;51.064;7.028;2024-03-08T13:21:09;12.60;;;11.30;;
4833;SDS011;12895;51.064;7.028;2024-03-08T13:24:23;13.53;;;12.13;;
4833;SDS011;12895;51.064;7.028;2024-03-08T13:27:35;13.30;;;12.00;;
4833;SDS011;12895;51.064;7.028;2024-03-08T13:31:06;13.17;;;11.87;;
4833;SDS011;12895;51.064;7.028;2024-03-08T13:34:12;13.70;;;12.40;;
4833;SDS011;12895;51.064;7.028;2024-03-08T13:37:26;12.60;;;11.33;;
4833;SDS011;12895;51.064;7.028;2024-03-08T13:40:32;14.27;;;12.37;;
4833;SDS011;12895;51.064;7.028;2024-03-08T13:43:33;14.50;;;13.00;;
4833;SDS011;12895;51.064;7.028;2024-03-08T13:50:14;13.77;;;12.37;;
4833;SDS011;12895;51.064;7.028;2024-03-08T13:53:20;13.73;;;12.20;;
4833;SDS011;12895;51.064;7.028;2024-03-08T13:56:15;13.93;;;12.57;;
4833;SDS011;12895;51.064;7.028;2024-03-08T13:59:05;13.57;;;12.20;;
4833;SDS011;12895;51.064;7.028;2024-03-08T14:01:55;15.50;;;13.90;;
4833;SDS011;12895;51.064;7.028;2024-03-08T14:04:43;13.30;;;12.00;;
4833;SDS011;12895;51.064;7.028;2024-03-08T14:07:30;13.37;;;11.97;;
4833;SDS011;12895;51.064;7.028;2024-03-08T14:10:19;14.50;;;13.00;;
4833;SDS011;12895;51.064;7.028;2024-03-08T14:13:09;13.80;;;12.40;;
4833;SDS011;12895;51.064;7.028;2024-03-08T14:15:57;14.27;;;12.77;;
4833;SDS011;12895;51.064;7.028;2024-03-08T14:18:44;14.80;;;13.27;;
4833;SDS011;12895;51.064;7.028;2024-03-08T14:21:31;14.63;;;13.13;;
4833;SDS011;12895;51.064;7.028;2024-03-08T14:24:19;14.13;;;12.73;;
4833;SDS011;12895;51.064;7.028;2024-03-08T14:27:06;14.90;;;13.40;;
4833;SDS011;12895;51.064;7.028;2024-03-08T14:29:56;14.40;;;12.90;;
4833;SDS011;12895;51.064;7.028;2024-03-08T14:32:43;14.47;;;12.83;;
4833;SDS011;12895;51.064;7.028;2024-03-08T14:35:32;13.50;;;12.20;;
4833;SDS011;12895;51.064;7.028;2024-03-08T14:38:19;15.20;;;13.70;;
4833;SDS011;12895;51.064;7.028;2024-03-08T14:41:06;15.13;;;13.63;;
4833;SDS011;12895;51.064;7.028;2024-03-08T14:43:53;14.73;;;13.23;;
4833;SDS011;12895;51.064;7.028;2024-03-08T14:46:43;15.67;;;14.07;;
4833;SDS011;12895;51.064;7.028;2024-03-08T14:49:31;16.27;;;14.27;;
4833;SDS011;12895;51.064;7.028;2024-03-08T14:52:25;16.43;;;14.70;;
4833;SDS011;12895;51.064;7.028;2024-03-08T15:21:06;14.37;;;12.97;;
4833;SDS011;12895;51.064;7.028;2024-03-08T15:23:53;15.30;;;13.13;;
4833;SDS011;12895;51.064;7.028;2024-03-08T15:26:41;14.50;;;13.00;;
4833;SDS011;12895;51.064;7.028;2024-03-08T15:29:28;15.00;;;13.40;;
4833;SDS011;12895;51.064;7.028;2024-03-08T15:32:17;15.10;;;12.97;;
4833;SDS011;12895;51.064;7.028;2024-03-08T15:35:06;14.57;;;13.10;;
4833;SDS011;12895;51.064;7.028;2024-03-08T15:37:56;13.70;;;12.37;;
4833;SDS011;12895;51.064;7.028;2024-03-08T15:40:44;14.77;;;13.20;;
4833;SDS011;12895;51.064;7.028;2024-03-08T15:43:32;13.77;;;12.37;;
4833;SDS011;12895;51.064;7.028;2024-03-08T15:46:20;13.27;;;11.90;;
4833;SDS011;12895;51.064;7.028;2024-03-08T15:49:08;12.97;;;11.67;;
4833;SDS011;12895;51.064;7.028;2024-03-08T15:51:56;14.47;;;12.50;;
4833;SDS011;12895;51.064;7.028;2024-03-08T15:54:44;14.53;;;13.20;;
4833;SDS011;12895;51.064;7.028;2024-03-08T15:57:32;15.97;;;14.40;;
4833;SDS011;12895;51.064;7.028;2024-03-08T16:00:21;13.37;;;12.10;;
4833;SDS011;12895;51.064;7.028;2024-03-08T16:03:18;13.87;;;12.47;;
4833;SDS011;12895;51.064;7.028;2024-03-08T16:06:05;15.20;;;13.80;;
4833;SDS011;12895;51.064;7.028;2024-03-08T16:08:52;13.70;;;12.50;;
4833;SDS011;12895;51.064;7.028;2024-03-08T16:11:41;14.47;;;13.17;;
4833;SDS011;12895;51.064;7.028;2024-03-08T16:14:29;13.47;;;12.07;;
4833;SDS011;12895;51.064;7.028;2024-03-08T16:17:16;14.60;;;13.10;;
4833;SDS011;12895;51.064;7.028;2024-03-08T16:20:04;13.33;;;11.97;;
4833;SDS011;12895;51.064;7.028;2024-03-08T16:22:56;11.83;;;10.73;;
4833;SDS011;12895;51.064;7.028;2024-03-08T16:25:43;12.90;;;11.70;;
4833;SDS011;12895;51.064;7.028;2024-03-08T16:28:32;11.90;;;10.77;;
4833;SDS011;12895;51.064;7.028;2024-03-08T16:31:24;12.77;;;11.57;;
4833;SDS011;12895;51.064;7.028;2024-03-08T16:34:11;11.87;;;10.33;;
4833;SDS011;12895;51.064;7.028;2024-03-08T16:37:00;11.53;;;10.43;;
4833;SDS011;12895;51.064;7.028;2024-03-08T16:39:48;10.60;;;9.50;;
4833;SDS011;12895;51.064;7.028;2024-03-08T16:42:35;11.57;;;10.37;;
4833;SDS011;12895;51.064;7.028;2024-03-08T16:45:26;9.93;;;9.03;;
4833;SDS011;12895;51.064;7.028;2024-03-08T16:48:13;13.10;;;11.77;;
4833;SDS011;12895;51.064;7.028;2024-03-08T16:51:04;10.90;;;9.90;;
4833;SDS011;12895;51.064;7.028;2024-03-08T16:53:54;11.17;;;10.07;;
4833;SDS011;12895;51.064;7.028;2024-03-08T16:56:41;12.43;;;10.17;;
4833;SDS011;12895;51.064;7.028;2024-03-08T16:59:30;12.47;;;10.47;;
4833;SDS011;12895;51.064;7.028;2024-03-08T17:02:19;12.50;;;11.23;;
4833;SDS011;12895;51.064;7.028;2024-03-08T17:05:06;11.70;;;10.53;;
4833;SDS011;12895;51.064;7.028;2024-03-08T17:07:55;12.43;;;11.13;;
4833;SDS011;12895;51.064;7.028;2024-03-08T17:10:43;11.97;;;10.60;;
4833;SDS011;12895;51.064;7.028;2024-03-08T17:13:30;12.43;;;11.13;;
4833;SDS011;12895;51.064;7.028;2024-03-08T17:16:20;13.47;;;11.03;;
4833;SDS011;12895;51.064;7.028;2024-03-08T17:19:11;15.53;;;12.20;;
4833;SDS011;12895;51.064;7.028;2024-03-08T17:21:58;16.13;;;11.70;;
4833;SDS011;12895;51.064;7.028;2024-03-08T17:24:45;15.67;;;12.90;;
4833;SDS011;12895;51.064;7.028;2024-03-08T17:27:33;12.60;;;11.20;;
4833;SDS011;12895;51.064;7.028;2024-03-08T17:30:21;11.60;;;10.40;;
4833;SDS011;12895;51.064;7.028;2024-03-08T17:33:10;14.17;;;10.40;;
4833;SDS011;12895;51.064;7.028;2024-03-08T17:36:01;14.27;;;12.27;;
4833;SDS011;12895;51.064;7.028;2024-03-08T17:38:52;16.83;;;12.30;;
4833;SDS011;12895;51.064;7.028;2024-03-08T17:41:40;15.00;;;13.10;;
4833;SDS011;12895;51.064;7.028;2024-03-08T17:44:27;13.80;;;12.10;;
4833;SDS011;12895;51.064;7.028;2024-03-08T17:47:15;13.83;;;12.37;;
4833;SDS011;12895;51.064;7.028;2024-03-08T17:50:04;15.00;;;12.90;;
4833;SDS011;12895;51.064;7.028;2024-03-08T17:53:03;17.53;;;13.67;;
4833;SDS011;12895;51.064;7.028;2024-03-08T17:55:51;14.53;;;12.70;;
4833;SDS011;12895;51.064;7.028;2024-03-08T17:58:43;18.20;;;14.63;;
4833;SDS011;12895;51.064;7.028;2024-03-08T18:01:30;15.80;;;13.27;;
4833;SDS011;12895;51.064;7.028;2024-03-08T18:04:17;13.87;;;12.23;;
4833;SDS011;12895;51.064;7.028;2024-03-08T18:07:04;15.47;;;13.43;;
4833;SDS011;12895;51.064;7.028;2024-03-08T18:09:54;16.40;;;13.20;;
4833;SDS011;12895;51.064;7.028;2024-03-08T18:12:42;14.93;;;12.90;;
4833;SDS011;12895;51.064;7.028;2024-03-08T18:15:30;17.23;;;13.23;;
4833;SDS011;12895;51.064;7.028;2024-03-08T18:18:17;17.23;;;13.87;;
4833;SDS011;12895;51.064;7.028;2024-03-08T18:21:04;14.40;;;12.90;;
4833;SDS011;12895;51.064;7.028;2024-03-08T18:23:52;21.63;;;13.93;;
4833;SDS011;12895;51.064;7.028;2024-03-08T18:26:40;16.77;;;13.77;;
4833;SDS011;12895;51.064;7.028;2024-03-08T18:29:30;21.07;;;15.43;;
4833;SDS011;12895;51.064;7.028;2024-03-08T18:32:18;18.10;;;14.97;;
4833;SDS011;12895;51.064;7.028;2024-03-08T18:35:07;17.03;;;14.40;;
4833;SDS011;12895;51.064;7.028;2024-03-08T18:37:56;19.10;;;14.37;;
4833;SDS011;12895;51.064;7.028;2024-03-08T18:40:44;15.97;;;13.50;;
4833;SDS011;12895;51.064;7.028;2024-03-08T18:43:34;19.00;;;15.17;;
4833;SDS011;12895;51.064;7.028;2024-03-08T18:46:22;18.40;;;15.77;;
4833;SDS011;12895;51.064;7.028;2024-03-08T18:49:09;17.73;;;14.30;;
4833;SDS011;12895;51.064;7.028;2024-03-08T18:51:57;17.90;;;14.67;;